createdAt,value
2018-01-24T00:00:09.263Z,8.00
2018-01-24T00:02:36.782Z,8.00
2018-01-24T00:05:04.464Z,8.00
2018-01-24T00:07:32.047Z,8.00
2018-01-24T00:09:59.596Z,8.00
2018-01-24T00:12:27.138Z,8.00
2018-01-24T00:14:54.668Z,8.00
2018-01-24T00:17:22.244Z,8.10
2018-01-24T00:19:50.654Z,8.00
2018-01-24T00:22:18.188Z,8.00
2018-01-24T00:24:46.541Z,8.00
2018-01-24T00:27:14.032Z,8.00
2018-01-24T00:29:41.559Z,8.00
2018-01-24T00:32:09.104Z,7.90
2018-01-24T00:34:36.655Z,8.00
2018-01-24T00:37:04.189Z,8.00
2018-01-24T00:39:32.613Z,8.00
2018-01-24T00:42:00.125Z,7.90
2018-01-24T00:44:27.645Z,7.90
2018-01-24T00:46:55.185Z,7.90
2018-01-24T00:49:23.482Z,7.90
2018-01-24T00:51:51.023Z,7.90
2018-01-24T00:54:19.373Z,7.90
2018-01-24T00:56:46.898Z,7.90
2018-01-24T00:59:14.466Z,7.90
2018-01-24T01:01:42.049Z,7.80
2018-01-24T01:04:09.568Z,7.80
2018-01-24T01:06:37.164Z,7.80
2018-01-24T01:09:04.678Z,7.90
2018-01-24T01:11:32.232Z,7.80
2018-01-24T01:13:59.782Z,7.80
2018-01-24T01:16:27.300Z,7.80
2018-01-24T01:18:54.838Z,7.80
2018-01-24T01:21:22.391Z,7.80
2018-01-24T01:23:49.944Z,7.80
2018-01-24T01:26:17.501Z,7.80
2018-01-24T01:28:45.028Z,7.80
2018-01-24T01:31:12.561Z,7.80
2018-01-24T01:33:40.180Z,7.70
2018-01-24T01:36:07.700Z,7.70
2018-01-24T01:38:35.222Z,7.80
2018-01-24T01:41:02.759Z,7.70
2018-01-24T01:43:30.302Z,7.70
2018-01-24T01:45:58.601Z,7.70
2018-01-24T01:48:31.749Z,7.70
2018-01-24T01:50:59.303Z,7.70
2018-01-24T01:53:26.835Z,7.70
2018-01-24T01:55:54.380Z,7.70
2018-01-24T01:58:22.679Z,7.70
2018-01-24T02:00:50.237Z,7.70
2018-01-24T02:03:18.610Z,7.70
2018-01-24T02:05:46.912Z,7.70
2018-01-24T02:08:14.451Z,7.70
2018-01-24T02:10:42.753Z,7.80
2018-01-24T02:13:10.626Z,7.70
2018-01-24T02:15:38.149Z,7.70
2018-01-24T02:18:05.662Z,7.70
2018-01-24T02:20:33.168Z,7.70
2018-01-24T02:23:02.277Z,7.80
2018-01-24T02:25:29.897Z,7.80
2018-01-24T02:27:57.414Z,7.80
2018-01-24T02:30:24.963Z,7.80
2018-01-24T02:32:52.598Z,7.80
2018-01-24T02:35:20.127Z,7.80
2018-01-24T02:37:48.447Z,7.80
2018-01-24T02:40:16.072Z,7.80
2018-01-24T02:42:44.372Z,7.80
2018-01-24T02:45:11.908Z,7.80
2018-01-24T02:47:39.441Z,7.80
2018-01-24T02:50:07.348Z,7.80
2018-01-24T02:52:34.909Z,7.90
2018-01-24T02:55:02.436Z,7.80
2018-01-24T02:57:30.022Z,7.80
2018-01-24T02:59:57.607Z,7.80
2018-01-24T03:02:25.155Z,7.80
2018-01-24T03:04:52.699Z,7.80
2018-01-24T03:07:20.249Z,7.80
2018-01-24T03:09:47.775Z,7.80
2018-01-24T03:12:15.386Z,7.80
2018-01-24T03:14:42.915Z,7.80
2018-01-24T03:17:11.257Z,7.80
2018-01-24T03:19:38.786Z,7.80
2018-01-24T03:22:06.304Z,7.80
2018-01-24T03:24:33.837Z,7.80
2018-01-24T03:27:01.427Z,7.80
2018-01-24T03:29:28.972Z,7.80
2018-01-24T03:31:56.522Z,7.80
2018-01-24T03:34:24.190Z,7.80
2018-01-24T03:36:51.711Z,7.90
2018-01-24T03:39:19.277Z,7.80
2018-01-24T03:41:46.808Z,7.80
2018-01-24T03:44:14.344Z,7.80
2018-01-24T03:46:41.872Z,7.80
2018-01-24T03:49:10.182Z,7.80
2018-01-24T03:51:37.763Z,7.80
2018-01-24T03:54:05.348Z,7.80
2018-01-24T03:56:33.704Z,7.90
2018-01-24T03:59:01.232Z,7.90
2018-01-24T04:01:28.845Z,7.90
2018-01-24T04:03:56.370Z,7.90
2018-01-24T04:06:23.904Z,7.90
2018-01-24T04:08:51.481Z,7.90
2018-01-24T04:11:19.011Z,7.90
2018-01-24T04:13:46.524Z,7.90
2018-01-24T04:16:14.076Z,7.90
2018-01-24T04:18:41.605Z,7.90
2018-01-24T04:21:09.176Z,7.90
2018-01-24T04:23:36.705Z,7.90
2018-01-24T04:26:04.992Z,7.90
2018-01-24T04:28:33.307Z,7.90
2018-01-24T04:31:00.860Z,7.90
2018-01-24T04:33:28.384Z,7.90
2018-01-24T04:35:55.910Z,7.90
2018-01-24T04:38:23.437Z,7.90
2018-01-24T04:40:51.719Z,8.00
2018-01-24T04:43:19.238Z,8.00
2018-01-24T04:45:46.761Z,8.10
2018-01-24T04:48:14.300Z,8.10
2018-01-24T04:50:42.590Z,8.10
2018-01-24T04:53:10.867Z,8.10
2018-01-24T04:55:39.159Z,8.10
2018-01-24T04:58:06.712Z,8.00
2018-01-24T05:00:35.016Z,8.10
2018-01-24T05:03:02.561Z,8.10
2018-01-24T05:05:30.850Z,8.10
2018-01-24T05:07:59.142Z,8.10
2018-01-24T05:10:26.673Z,8.10
2018-01-24T05:12:54.220Z,8.10
2018-01-24T05:15:21.950Z,8.10
2018-01-24T05:17:49.459Z,8.10
2018-01-24T05:20:17.564Z,8.10
2018-01-24T05:22:45.856Z,8.10
2018-01-24T05:25:13.415Z,8.10
2018-01-24T05:27:41.712Z,8.20
2018-01-24T05:30:09.312Z,8.10
2018-01-24T05:32:36.839Z,8.10
2018-01-24T05:35:04.376Z,8.20
2018-01-24T05:37:32.685Z,8.20
2018-01-24T05:40:00.287Z,8.20
2018-01-24T05:42:27.813Z,8.20
2018-01-24T05:44:56.100Z,8.20
2018-01-24T05:47:23.611Z,8.20
2018-01-24T05:49:51.500Z,8.20
2018-01-24T05:52:19.028Z,8.20
2018-01-24T05:54:46.555Z,8.20
2018-01-24T05:57:14.837Z,8.10
2018-01-24T05:59:43.123Z,8.20
2018-01-24T06:02:10.667Z,8.20
2018-01-24T06:04:38.297Z,8.30
2018-01-24T06:07:06.580Z,8.30
2018-01-24T06:09:34.103Z,8.20
2018-01-24T06:12:01.686Z,8.30
2018-01-24T06:14:29.226Z,8.30
2018-01-24T06:16:57.515Z,8.30
2018-01-24T06:19:25.101Z,8.30
2018-01-24T06:21:52.646Z,8.20
2018-01-24T06:24:20.985Z,8.30
2018-01-24T06:26:48.897Z,8.20
2018-01-24T06:29:17.196Z,8.30
2018-01-24T06:31:44.806Z,8.30
2018-01-24T06:34:12.345Z,8.30
2018-01-24T06:36:39.868Z,8.40
2018-01-24T06:39:08.285Z,8.30
2018-01-24T06:41:35.951Z,8.30
2018-01-24T06:44:03.476Z,8.40
2018-01-24T06:46:30.983Z,8.40
2018-01-24T06:48:58.515Z,8.40
2018-01-24T06:51:26.060Z,8.30
2018-01-24T06:53:53.585Z,8.30
2018-01-24T06:56:21.117Z,8.30
2018-01-24T06:58:49.476Z,8.30
2018-01-24T07:01:17.025Z,8.30
2018-01-24T07:03:45.345Z,8.40
2018-01-24T07:06:13.641Z,8.30
2018-01-24T07:08:41.199Z,8.30
2018-01-24T07:11:09.489Z,8.30
2018-01-24T07:13:48.976Z,8.30
2018-01-24T07:16:16.524Z,8.30
2018-01-24T07:18:44.055Z,8.30
2018-01-24T07:21:11.585Z,8.30
2018-01-24T07:23:39.130Z,8.30
2018-01-24T07:26:06.666Z,8.40
2018-01-24T07:28:34.204Z,8.30
2018-01-24T07:31:02.524Z,8.40
2018-01-24T07:33:30.139Z,8.30
2018-01-24T07:35:58.445Z,8.30
2018-01-24T07:38:26.728Z,8.40
2018-01-24T07:40:54.247Z,8.30
2018-01-24T07:43:21.872Z,8.40
2018-01-24T07:45:49.438Z,8.30
2018-01-24T07:48:16.968Z,8.40
2018-01-24T07:50:44.504Z,8.40
2018-01-24T07:53:12.028Z,8.40
2018-01-24T07:55:39.559Z,8.40
2018-01-24T07:58:07.075Z,8.40
2018-01-24T08:00:34.644Z,8.40
2018-01-24T08:03:02.171Z,8.40
2018-01-24T08:05:30.461Z,8.40
2018-01-24T08:07:57.989Z,8.40
2018-01-24T08:10:25.605Z,8.40
2018-01-24T08:12:53.141Z,8.40
2018-01-24T08:15:21.452Z,8.30
2018-01-24T08:17:49.855Z,8.40
2018-01-24T08:20:17.372Z,8.30
2018-01-24T08:22:45.674Z,8.40
2018-01-24T08:25:13.217Z,8.40
2018-01-24T08:27:41.505Z,8.40
2018-01-24T08:30:09.792Z,8.50
2018-01-24T08:32:37.335Z,8.50
2018-01-24T08:35:04.947Z,8.50
2018-01-24T08:37:32.464Z,8.50
2018-01-24T08:39:59.989Z,8.50
2018-01-24T08:42:27.520Z,8.40
2018-01-24T08:44:55.820Z,8.50
2018-01-24T08:47:24.431Z,8.50
2018-01-24T08:49:52.278Z,8.50
2018-01-24T08:52:19.798Z,8.60
2018-01-24T08:54:47.339Z,8.60
2018-01-24T08:57:15.653Z,8.60
2018-01-24T08:59:43.170Z,8.60
2018-01-24T09:02:10.712Z,8.60
2018-01-24T09:04:38.281Z,8.60
2018-01-24T09:07:05.800Z,8.60
2018-01-24T09:09:33.316Z,8.60
2018-01-24T09:12:00.870Z,8.60
2018-01-24T09:14:29.184Z,8.70
2018-01-24T09:16:56.721Z,8.60
2018-01-24T09:19:24.251Z,8.60
2018-01-24T09:21:51.780Z,8.70
2018-01-24T09:24:19.331Z,8.70
2018-01-24T09:26:46.963Z,8.70
2018-01-24T09:29:17.037Z,8.80
2018-01-24T09:31:44.580Z,8.80
2018-01-24T09:34:12.108Z,8.70
2018-01-24T09:36:40.406Z,8.90
2018-01-24T09:39:07.952Z,8.80
2018-01-24T09:41:35.490Z,8.80
2018-01-24T09:44:03.024Z,8.90
2018-01-24T09:46:30.544Z,8.90
2018-01-24T09:48:58.064Z,8.90
2018-01-24T09:51:25.620Z,8.90
2018-01-24T09:53:53.190Z,8.90
2018-01-24T09:56:20.745Z,9.00
2018-01-24T09:58:48.458Z,8.90
2018-01-24T10:01:15.983Z,8.90
2018-01-24T10:03:43.565Z,8.90
2018-01-24T10:06:11.264Z,9.00
2018-01-24T10:08:38.792Z,9.00
2018-01-24T10:11:06.329Z,9.10
2018-01-24T10:13:33.856Z,9.10
2018-01-24T10:16:01.740Z,9.20
2018-01-24T10:18:29.269Z,9.30
2018-01-24T10:20:56.799Z,9.30
2018-01-24T10:23:24.325Z,9.40
2018-01-24T10:25:51.853Z,9.40
2018-01-24T10:28:19.798Z,9.40
2018-01-24T10:30:48.089Z,9.40
2018-01-24T10:33:15.645Z,9.50
2018-01-24T10:35:43.949Z,9.40
2018-01-24T10:38:11.460Z,9.50
2018-01-24T10:40:38.987Z,9.50
2018-01-24T10:43:06.525Z,9.50
2018-01-24T10:45:34.054Z,9.50
2018-01-24T10:48:01.615Z,9.40
2018-01-24T10:50:29.196Z,9.40
2018-01-24T10:52:56.699Z,9.50
2018-01-24T10:55:24.224Z,9.50
2018-01-24T10:57:51.761Z,9.40
2018-01-24T11:00:19.835Z,9.50
2018-01-24T11:02:48.504Z,9.50
2018-01-24T11:05:16.089Z,9.60
2018-01-24T11:07:43.630Z,9.60
2018-01-24T11:10:11.242Z,9.70
2018-01-24T11:12:40.677Z,9.60
2018-01-24T11:15:08.212Z,9.60
2018-01-24T11:17:35.766Z,9.70
2018-01-24T11:20:03.276Z,9.70
2018-01-24T11:22:32.344Z,9.60
2018-01-24T11:24:59.883Z,9.60
2018-01-24T11:27:27.411Z,9.70
2018-01-24T11:29:55.836Z,9.70
2018-01-24T11:32:23.356Z,9.70
2018-01-24T11:34:51.643Z,9.80
2018-01-24T11:37:19.944Z,9.80
2018-01-24T11:39:47.708Z,9.80
2018-01-24T11:42:15.255Z,9.90
2018-01-24T11:44:43.569Z,10.00
2018-01-24T11:47:11.116Z,10.00
2018-01-24T11:49:39.799Z,10.00
2018-01-24T11:52:07.821Z,10.00
2018-01-24T11:54:35.495Z,10.10
2018-01-24T11:57:03.024Z,10.10
2018-01-24T11:59:30.592Z,10.10
2018-01-24T12:02:00.164Z,10.10
2018-01-24T12:04:28.675Z,10.10
2018-01-24T12:06:57.001Z,10.10
2018-01-24T12:09:24.544Z,10.10
2018-01-24T12:11:52.086Z,10.20
2018-01-24T12:14:20.385Z,10.20
2018-01-24T12:16:48.062Z,10.20
2018-01-24T12:19:15.710Z,10.30
2018-01-24T12:21:43.253Z,10.20
2018-01-24T12:24:10.767Z,10.10
2018-01-24T12:26:38.378Z,10.10
2018-01-24T12:29:05.942Z,10.10
2018-01-24T12:31:33.526Z,10.10
2018-01-24T12:34:01.139Z,10.20
2018-01-24T12:36:28.664Z,10.30
2018-01-24T12:38:57.287Z,10.30
2018-01-24T12:41:24.787Z,10.30
2018-01-24T12:43:52.341Z,10.30
2018-01-24T12:46:19.867Z,10.30
2018-01-24T12:48:48.267Z,10.40
2018-01-24T12:51:17.549Z,10.30
2018-01-24T12:53:45.846Z,10.30
2018-01-24T12:56:13.391Z,10.30
2018-01-24T12:58:41.684Z,10.30
2018-01-24T13:01:09.987Z,10.40
2018-01-24T13:03:37.503Z,10.30
2018-01-24T13:06:05.097Z,10.30
2018-01-24T13:08:34.832Z,10.30
2018-01-24T13:11:03.159Z,10.30
2018-01-24T13:13:30.697Z,10.30
2018-01-24T13:15:58.244Z,10.40
2018-01-24T13:18:25.799Z,10.40
2018-01-24T13:20:55.673Z,10.40
2018-01-24T13:23:23.372Z,10.40
2018-01-24T13:25:51.673Z,10.30
2018-01-24T13:28:20.261Z,10.30
2018-01-24T13:30:48.548Z,10.30
2018-01-24T13:33:16.151Z,10.30
2018-01-24T13:35:44.865Z,10.40
2018-01-24T13:38:12.382Z,10.30
2018-01-24T13:40:39.918Z,10.30
2018-01-24T13:43:07.484Z,10.30
2018-01-24T13:45:35.058Z,10.20
2018-01-24T13:48:03.346Z,10.20
2018-01-24T13:50:30.917Z,10.20
2018-01-24T13:52:58.448Z,10.20
2018-01-24T13:55:26.032Z,10.20
2018-01-24T13:57:54.360Z,10.10
2018-01-24T14:00:21.979Z,10.10
2018-01-24T14:02:49.502Z,10.10
2018-01-24T14:05:16.991Z,10.10
2018-01-24T14:07:44.531Z,10.10
2018-01-24T14:10:12.080Z,10.10
2018-01-24T14:12:39.616Z,10.10
2018-01-24T14:15:07.149Z,10.10
2018-01-24T14:17:34.760Z,10.10
2018-01-24T14:20:02.284Z,10.10
2018-01-24T14:22:29.831Z,10.10
2018-01-24T14:24:57.366Z,10.20
2018-01-24T14:27:24.869Z,10.20
2018-01-24T14:29:52.411Z,10.20
2018-01-24T14:32:19.988Z,10.30
2018-01-24T14:34:47.649Z,10.30
2018-01-24T14:37:15.185Z,10.40
2018-01-24T14:39:42.753Z,10.40
2018-01-24T14:42:10.348Z,10.40
2018-01-24T14:44:37.899Z,10.50
2018-01-24T14:47:05.444Z,10.50
2018-01-24T14:49:32.969Z,10.50
2018-01-24T14:52:01.387Z,10.50
2018-01-24T14:54:28.913Z,10.50
2018-01-24T14:56:56.445Z,10.50
2018-01-24T14:59:23.990Z,10.50
2018-01-24T15:01:51.576Z,10.60
2018-01-24T15:04:19.104Z,10.50
2018-01-24T15:06:47.469Z,10.50
2018-01-24T15:09:15.755Z,10.50
2018-01-24T15:11:44.252Z,10.50
2018-01-24T15:14:12.761Z,10.50
2018-01-24T15:16:40.300Z,10.50
2018-01-24T15:19:08.600Z,10.40
2018-01-24T15:21:36.143Z,10.40
2018-01-24T15:24:04.832Z,10.30
2018-01-24T15:26:33.152Z,10.30
2018-01-24T15:29:00.754Z,10.30
2018-01-24T15:31:28.334Z,10.20
2018-01-24T15:33:56.675Z,10.10
2018-01-24T15:36:24.225Z,10.10
2018-01-24T15:38:51.770Z,10.10
2018-01-24T15:41:20.058Z,10.10
2018-01-24T15:43:47.604Z,10.10
2018-01-24T15:46:15.939Z,10.00
2018-01-24T15:48:43.516Z,10.00
2018-01-24T15:51:11.045Z,10.00
2018-01-24T15:53:38.576Z,10.00
2018-01-24T15:56:06.138Z,10.00
2018-01-24T15:58:34.449Z,10.00
2018-01-24T16:01:02.009Z,10.00
2018-01-24T16:03:30.322Z,9.90
2018-01-24T16:05:57.837Z,9.90
2018-01-24T16:08:26.201Z,9.90
2018-01-24T16:10:53.712Z,9.90
2018-01-24T16:13:21.256Z,9.80
2018-01-24T16:15:49.543Z,9.70
2018-01-24T16:18:18.164Z,9.60
2018-01-24T16:20:46.202Z,9.60
2018-01-24T16:23:13.815Z,9.50
2018-01-24T16:25:41.375Z,9.50
2018-01-24T16:28:08.973Z,9.50
2018-01-24T16:30:36.495Z,9.40
2018-01-24T16:33:04.022Z,9.40
2018-01-24T16:35:31.537Z,9.40
2018-01-24T16:37:59.077Z,9.30
2018-01-24T16:40:27.410Z,9.30
2018-01-24T16:42:54.921Z,9.20
2018-01-24T16:45:23.224Z,9.20
2018-01-24T16:47:50.762Z,9.20
2018-01-24T16:50:18.358Z,9.20
2018-01-24T16:52:45.950Z,9.10
2018-01-24T16:55:13.675Z,9.20
2018-01-24T16:57:41.992Z,9.10
2018-01-24T17:00:09.555Z,9.10
2018-01-24T17:02:37.120Z,9.00
2018-01-24T17:05:04.666Z,8.90
2018-01-24T17:07:32.199Z,8.80
2018-01-24T17:10:00.536Z,8.70
2018-01-24T17:12:28.267Z,8.70
2018-01-24T17:14:55.801Z,8.60
2018-01-24T17:17:23.419Z,8.60
2018-01-24T17:19:50.945Z,8.50
2018-01-24T17:22:18.509Z,8.50
2018-01-24T17:24:46.071Z,8.50
2018-01-24T17:27:13.607Z,8.40
2018-01-24T17:29:41.133Z,8.40
2018-01-24T17:32:08.666Z,8.40
2018-01-24T17:34:36.276Z,8.40
2018-01-24T17:37:03.789Z,8.30
2018-01-24T17:39:31.312Z,8.40
2018-01-24T17:41:58.868Z,8.40
2018-01-24T17:44:26.388Z,8.40
2018-01-24T17:46:53.938Z,8.50
2018-01-24T17:49:21.463Z,8.60
2018-01-24T17:51:48.995Z,8.70
2018-01-24T17:54:17.415Z,8.70
2018-01-24T17:56:44.985Z,8.70
2018-01-24T17:59:12.532Z,8.80
2018-01-24T18:01:40.128Z,8.90
2018-01-24T18:04:07.666Z,8.90
2018-01-24T18:06:35.947Z,9.00
2018-01-24T18:09:03.524Z,8.90
2018-01-24T18:11:31.093Z,9.00
2018-01-24T18:13:58.625Z,9.10
2018-01-24T18:16:26.936Z,9.30
2018-01-24T18:18:54.540Z,9.30
2018-01-24T18:21:22.087Z,9.30
2018-01-24T18:23:49.647Z,9.20
2018-01-24T18:26:17.192Z,9.20
2018-01-24T18:28:44.713Z,9.20
2018-01-24T18:31:12.255Z,9.20
2018-01-24T18:33:39.805Z,9.20
2018-01-24T18:36:07.376Z,9.30
2018-01-24T18:38:34.904Z,9.40
2018-01-24T18:41:03.212Z,9.30
2018-01-24T18:43:30.745Z,9.30
2018-01-24T18:45:59.058Z,9.40
2018-01-24T18:48:26.597Z,9.40
2018-01-24T18:50:54.900Z,9.50
2018-01-24T18:53:22.438Z,9.50
2018-01-24T18:55:49.983Z,9.50
2018-01-24T18:58:17.508Z,9.60
2018-01-24T19:00:45.085Z,9.60
2018-01-24T19:03:12.660Z,9.60
2018-01-24T19:05:40.192Z,9.60
2018-01-24T19:08:07.707Z,9.50
2018-01-24T19:10:35.241Z,9.60
2018-01-24T19:13:02.895Z,9.60
2018-01-24T19:15:31.277Z,9.70
2018-01-24T19:17:58.809Z,9.70
2018-01-24T19:20:27.153Z,9.80
2018-01-24T19:22:54.739Z,9.70
2018-01-24T19:25:22.366Z,9.90
2018-01-24T19:27:49.899Z,9.90
2018-01-24T19:30:18.205Z,9.90
2018-01-24T19:32:45.812Z,9.90
2018-01-24T19:35:13.368Z,9.90
2018-01-24T19:37:40.991Z,9.90
2018-01-24T19:40:09.387Z,9.80
2018-01-24T19:42:36.901Z,9.80
2018-01-24T19:45:04.459Z,9.80
2018-01-24T19:47:32.847Z,9.70
2018-01-24T19:50:00.412Z,9.60
2018-01-24T19:52:27.940Z,9.60
2018-01-24T19:54:55.479Z,9.50
2018-01-24T19:57:23.782Z,9.40
2018-01-24T19:59:51.314Z,9.40
2018-01-24T20:02:19.628Z,9.30
2018-01-24T20:04:47.224Z,9.30
2018-01-24T20:07:14.749Z,9.20
2018-01-24T20:09:42.292Z,9.10
2018-01-24T20:12:10.596Z,8.90
2018-01-24T20:14:38.228Z,8.90
2018-01-24T20:17:06.619Z,8.90
2018-01-24T20:19:34.396Z,8.90
2018-01-24T20:22:02.778Z,8.90
2018-01-24T20:24:30.337Z,8.80
2018-01-24T20:26:57.866Z,8.70
2018-01-24T20:29:26.180Z,8.70
2018-01-24T20:31:54.568Z,8.70
2018-01-24T20:34:22.099Z,8.70
2018-01-24T20:36:49.741Z,8.60
2018-01-24T20:39:17.295Z,8.60
2018-01-24T20:41:44.976Z,8.70
2018-01-24T20:44:12.497Z,8.70
2018-01-24T20:46:40.047Z,8.60
2018-01-24T20:49:07.664Z,8.60
2018-01-24T20:51:35.253Z,8.60
2018-01-24T20:54:02.781Z,8.50
2018-01-24T20:56:31.118Z,8.40
2018-01-24T20:58:58.752Z,8.40
2018-01-24T21:01:26.288Z,8.40
2018-01-24T21:03:54.904Z,8.40
2018-01-24T21:06:22.421Z,8.40
2018-01-24T21:08:49.939Z,8.40
2018-01-24T21:11:17.473Z,8.40
2018-01-24T21:13:45.755Z,8.40
2018-01-24T21:16:14.347Z,8.30
2018-01-24T21:18:42.665Z,8.30
2018-01-24T21:21:10.182Z,8.30
2018-01-24T21:23:38.491Z,8.30
2018-01-24T21:26:06.037Z,8.20
2018-01-24T21:28:45.213Z,8.20
2018-01-24T21:34:37.807Z,8.10
2018-01-24T21:37:06.119Z,8.10
2018-01-24T21:39:33.686Z,8.10
2018-01-24T21:42:01.205Z,8.10
2018-01-24T21:44:28.724Z,8.10
2018-01-24T21:46:56.264Z,8.10
2018-01-24T21:49:23.791Z,8.10
2018-01-24T21:51:51.328Z,8.10
2018-01-24T21:54:18.975Z,8.10
2018-01-24T21:56:46.567Z,8.10
2018-01-24T21:59:14.315Z,8.10
2018-01-24T22:01:41.831Z,8.10
2018-01-24T22:04:09.354Z,8.00
2018-01-24T22:06:36.913Z,8.00
2018-01-24T22:09:04.456Z,8.00
2018-01-24T22:11:32.767Z,8.00
2018-01-24T22:14:00.396Z,7.90
2018-01-24T22:16:28.688Z,7.90
2018-01-24T22:18:56.987Z,8.00
2018-01-24T22:21:24.641Z,8.00
2018-01-24T22:23:52.174Z,8.00
2018-01-24T22:26:20.495Z,8.00
2018-01-24T22:28:48.001Z,8.00
2018-01-24T22:31:15.637Z,7.90
2018-01-24T22:33:43.173Z,7.80
2018-01-24T22:36:11.477Z,7.80
2018-01-24T22:38:39.032Z,7.80
2018-01-24T22:41:06.588Z,7.80
2018-01-24T22:43:34.176Z,7.80
2018-01-24T22:46:01.784Z,7.80
2018-01-24T22:48:29.341Z,7.70
2018-01-24T22:50:56.906Z,7.70
2018-01-24T22:53:24.451Z,7.70
2018-01-24T22:55:51.979Z,7.70
2018-01-24T22:58:19.509Z,7.70
2018-01-24T23:00:47.046Z,7.70
2018-01-24T23:03:14.599Z,7.70
2018-01-24T23:05:42.169Z,7.80
2018-01-24T23:08:09.688Z,7.80
2018-01-24T23:10:37.995Z,7.90
2018-01-24T23:13:05.549Z,7.80
2018-01-24T23:15:33.904Z,7.90
2018-01-24T23:18:01.484Z,7.80
2018-01-24T23:20:29.017Z,7.80
2018-01-24T23:22:56.549Z,7.80
2018-01-24T23:25:24.170Z,7.80
2018-01-24T23:27:51.722Z,7.80
2018-01-24T23:30:19.273Z,7.80
2018-01-24T23:32:46.801Z,7.80
2018-01-24T23:35:14.361Z,7.90
2018-01-24T23:37:41.893Z,7.90
2018-01-24T23:40:09.453Z,8.00
2018-01-24T23:42:36.979Z,8.10
2018-01-24T23:45:04.520Z,8.20
2018-01-24T23:47:32.823Z,8.30
2018-01-24T23:50:00.348Z,8.30
2018-01-24T23:52:27.891Z,8.50
2018-01-24T23:54:55.403Z,8.60
2018-01-24T23:57:22.933Z,8.60
2018-01-24T23:59:50.454Z,8.50
